Aviation Digital Data Service (ADDS)

Output produced by METARs form (0407 UTC 26 May 2022)
found at http://www.aviationweather.gov/metar/data/
 
METAR text: KGYI 260355Z AUTO 25006KT 10SM BKN045 OVC050 15/11 A2988 RMK AO2 T01500112 TSNO
Conditions at: KGYI (SHERMAN/DENISON , TX, US) observed 0355 UTC 26 May 2022
Temperature: 15.0°C (59°F)
Dewpoint: 11.2°C (52°F) [RH = 78%]
Pressure (altimeter): 29.88 inches Hg (1011.9 mb)
Winds: from the WSW (250 degrees) at 7 MPH (6 knots; 3.1 m/s)
Visibility: 10 or more miles (16+ km)
Ceiling: 4500 feet AGL
Clouds: broken clouds at 4500 feet AGL
overcast cloud deck at 5000 feet AGL
Weather: automated observation with no human augmentation;
there may or may not be significant weather present at this time